sensor_id;sensor_type;location;lat;lon;timestamp;pressure;altitude;pressure_sealevel;temperature;humidity
19827;BME280;10074;52.018;4.726;2022-11-14T00:04:47;46471.91;;;-144.79;100.00
19827;BME280;10074;52.018;4.726;2022-11-14T00:09:47;46475.91;;;-144.79;100.00
19827;BME280;10074;52.018;4.726;2022-11-14T00:14:48;46471.91;;;-144.79;100.00
19827;BME280;10074;52.018;4.726;2022-11-14T00:19:48;46471.91;;;-144.79;100.00
19827;BME280;10074;52.018;4.726;2022-11-14T00:24:48;46471.91;;;-144.79;100.00
19827;BME280;10074;52.018;4.726;2022-11-14T00:29:49;46473.91;;;-144.79;100.00
19827;BME280;10074;52.018;4.726;2022-11-14T00:34:49;46475.91;;;-144.79;100.00
19827;BME280;10074;52.018;4.726;2022-11-14T00:39:49;46471.91;;;-144.79;100.00
19827;BME280;10074;52.018;4.726;2022-11-14T00:44:50;46471.91;;;-144.79;100.00
19827;BME280;10074;52.018;4.726;2022-11-14T00:49:50;46473.91;;;-144.79;100.00
19827;BME280;10074;52.018;4.726;2022-11-14T00:54:50;46473.91;;;-144.79;100.00
19827;BME280;10074;52.018;4.726;2022-11-14T00:59:51;46475.91;;;-144.79;100.00
19827;BME280;10074;52.018;4.726;2022-11-14T01:04:54;46469.88;;;-144.79;100.00
19827;BME280;10074;52.018;4.726;2022-11-14T01:09:55;46469.88;;;-144.79;100.00
19827;BME280;10074;52.018;4.726;2022-11-14T01:14:55;46469.88;;;-144.79;100.00
19827;BME280;10074;52.018;4.726;2022-11-14T01:19:55;46475.91;;;-144.79;100.00
19827;BME280;10074;52.018;4.726;2022-11-14T01:24:55;46473.91;;;-144.79;100.00
19827;BME280;10074;52.018;4.726;2022-11-14T01:29:57;46471.91;;;-144.79;100.00
19827;BME280;10074;52.018;4.726;2022-11-14T01:34:57;46465.88;;;-144.79;100.00
19827;BME280;10074;52.018;4.726;2022-11-14T01:39:58;46465.88;;;-144.79;100.00
19827;BME280;10074;52.018;4.726;2022-11-14T01:44:58;46471.91;;;-144.79;100.00
19827;BME280;10074;52.018;4.726;2022-11-14T01:50:01;46467.88;;;-144.79;100.00
19827;BME280;10074;52.018;4.726;2022-11-14T01:55:07;46471.91;;;-144.79;100.00
19827;BME280;10074;52.018;4.726;2022-11-14T02:00:10;46467.88;;;-144.79;100.00
19827;BME280;10074;52.018;4.726;2022-11-14T02:05:14;46465.88;;;-144.79;100.00
19827;BME280;10074;52.018;4.726;2022-11-14T02:10:18;46473.91;;;-144.79;100.00
19827;BME280;10074;52.018;4.726;2022-11-14T02:15:19;46467.88;;;-144.79;100.00
19827;BME280;10074;52.018;4.726;2022-11-14T02:20:21;46471.91;;;-144.79;100.00
19827;BME280;10074;52.018;4.726;2022-11-14T02:25:22;46469.88;;;-144.79;100.00
19827;BME280;10074;52.018;4.726;2022-11-14T02:30:22;46469.88;;;-144.79;100.00
19827;BME280;10074;52.018;4.726;2022-11-14T02:35:23;46471.91;;;-144.79;100.00
19827;BME280;10074;52.018;4.726;2022-11-14T02:40:23;46469.88;;;-144.79;100.00
19827;BME280;10074;52.018;4.726;2022-11-14T02:45:26;46471.91;;;-144.79;100.00
19827;BME280;10074;52.018;4.726;2022-11-14T02:50:27;46467.88;;;-144.79;100.00
19827;BME280;10074;52.018;4.726;2022-11-14T02:55:28;46471.91;;;-144.79;100.00
19827;BME280;10074;52.018;4.726;2022-11-14T03:00:28;46473.91;;;-144.79;100.00
19827;BME280;10074;52.018;4.726;2022-11-14T03:05:28;46473.91;;;-144.79;100.00
19827;BME280;10074;52.018;4.726;2022-11-14T03:10:28;46475.91;;;-144.79;100.00
19827;BME280;10074;52.018;4.726;2022-11-14T03:15:29;46471.91;;;-144.79;100.00
19827;BME280;10074;52.018;4.726;2022-11-14T03:20:29;46475.91;;;-144.79;100.00
19827;BME280;10074;52.018;4.726;2022-11-14T03:25:30;46471.91;;;-144.79;100.00
19827;BME280;10074;52.018;4.726;2022-11-14T03:30:30;46469.88;;;-144.79;100.00
19827;BME280;10074;52.018;4.726;2022-11-14T03:35:30;46473.91;;;-144.79;100.00
19827;BME280;10074;52.018;4.726;2022-11-14T03:40:31;46471.91;;;-144.79;100.00
19827;BME280;10074;52.018;4.726;2022-11-14T03:45:31;46477.91;;;-144.79;100.00
19827;BME280;10074;52.018;4.726;2022-11-14T03:50:31;46473.91;;;-144.79;100.00
19827;BME280;10074;52.018;4.726;2022-11-14T03:55:32;46471.91;;;-144.79;100.00
19827;BME280;10074;52.018;4.726;2022-11-14T04:00:32;46471.91;;;-144.79;100.00
19827;BME280;10074;52.018;4.726;2022-11-14T04:05:33;46473.91;;;-144.79;100.00
19827;BME280;10074;52.018;4.726;2022-11-14T04:10:33;46473.91;;;-144.79;100.00
19827;BME280;10074;52.018;4.726;2022-11-14T04:15:34;46469.88;;;-144.79;100.00
19827;BME280;10074;52.018;4.726;2022-11-14T04:20:34;46471.91;;;-144.79;100.00
19827;BME280;10074;52.018;4.726;2022-11-14T04:25:34;46467.88;;;-144.79;100.00
19827;BME280;10074;52.018;4.726;2022-11-14T04:30:35;46469.88;;;-144.79;100.00
19827;BME280;10074;52.018;4.726;2022-11-14T04:35:35;46467.88;;;-144.79;100.00
19827;BME280;10074;52.018;4.726;2022-11-14T04:40:36;46469.88;;;-144.79;100.00
19827;BME280;10074;52.018;4.726;2022-11-14T04:45:36;46471.91;;;-144.79;100.00
19827;BME280;10074;52.018;4.726;2022-11-14T04:50:36;46477.91;;;-144.79;100.00
19827;BME280;10074;52.018;4.726;2022-11-14T04:55:37;46471.91;;;-144.79;100.00
19827;BME280;10074;52.018;4.726;2022-11-14T05:00:37;46473.91;;;-144.79;100.00
19827;BME280;10074;52.018;4.726;2022-11-14T05:05:37;46469.88;;;-144.79;100.00
19827;BME280;10074;52.018;4.726;2022-11-14T05:10:42;46467.88;;;-144.79;100.00
19827;BME280;10074;52.018;4.726;2022-11-14T05:15:43;46475.91;;;-144.79;100.00
19827;BME280;10074;52.018;4.726;2022-11-14T05:20:43;46471.91;;;-144.79;100.00
19827;BME280;10074;52.018;4.726;2022-11-14T05:25:43;46471.91;;;-144.79;100.00
19827;BME280;10074;52.018;4.726;2022-11-14T05:30:44;46469.88;;;-144.79;100.00
19827;BME280;10074;52.018;4.726;2022-11-14T05:35:45;46473.91;;;-144.79;100.00
19827;BME280;10074;52.018;4.726;2022-11-14T05:40:46;46471.91;;;-144.79;100.00
19827;BME280;10074;52.018;4.726;2022-11-14T05:45:46;46473.91;;;-144.79;100.00
19827;BME280;10074;52.018;4.726;2022-11-14T05:50:46;46471.91;;;-144.79;100.00
19827;BME280;10074;52.018;4.726;2022-11-14T05:55:46;46467.88;;;-144.79;100.00
19827;BME280;10074;52.018;4.726;2022-11-14T06:00:48;46473.91;;;-144.79;100.00
19827;BME280;10074;52.018;4.726;2022-11-14T06:05:48;46471.91;;;-144.79;100.00
19827;BME280;10074;52.018;4.726;2022-11-14T06:10:49;46469.88;;;-144.79;100.00
19827;BME280;10074;52.018;4.726;2022-11-14T06:15:49;46473.91;;;-144.79;100.00
19827;BME280;10074;52.018;4.726;2022-11-14T06:20:50;46469.88;;;-144.79;100.00
19827;BME280;10074;52.018;4.726;2022-11-14T06:25:50;46475.91;;;-144.79;100.00
19827;BME280;10074;52.018;4.726;2022-11-14T06:30:50;46469.88;;;-144.79;100.00
19827;BME280;10074;52.018;4.726;2022-11-14T06:35:56;46469.88;;;-144.79;100.00
19827;BME280;10074;52.018;4.726;2022-11-14T06:41:10;46473.91;;;-144.79;100.00
19827;BME280;10074;52.018;4.726;2022-11-14T06:46:13;46475.91;;;-144.79;100.00
19827;BME280;10074;52.018;4.726;2022-11-14T06:51:15;46475.91;;;-144.79;100.00
19827;BME280;10074;52.018;4.726;2022-11-14T06:56:17;46471.91;;;-144.79;100.00
19827;BME280;10074;52.018;4.726;2022-11-14T07:01:22;46473.91;;;-144.79;100.00
19827;BME280;10074;52.018;4.726;2022-11-14T07:06:24;46469.88;;;-144.79;100.00
19827;BME280;10074;52.018;4.726;2022-11-14T07:11:26;46471.91;;;-144.79;100.00
19827;BME280;10074;52.018;4.726;2022-11-14T07:16:33;46471.91;;;-144.79;100.00
19827;BME280;10074;52.018;4.726;2022-11-14T07:21:36;46475.91;;;-144.79;100.00
19827;BME280;10074;52.018;4.726;2022-11-14T07:26:36;46473.91;;;-144.79;100.00
19827;BME280;10074;52.018;4.726;2022-11-14T07:31:36;46473.91;;;-144.79;100.00
19827;BME280;10074;52.018;4.726;2022-11-14T07:36:37;46471.91;;;-144.79;100.00
19827;BME280;10074;52.018;4.726;2022-11-14T07:41:37;46467.88;;;-144.79;100.00
19827;BME280;10074;52.018;4.726;2022-11-14T07:46:37;46467.88;;;-144.79;100.00
19827;BME280;10074;52.018;4.726;2022-11-14T07:51:38;46469.88;;;-144.79;100.00
19827;BME280;10074;52.018;4.726;2022-11-14T07:56:38;46467.88;;;-144.79;100.00
19827;BME280;10074;52.018;4.726;2022-11-14T08:01:38;46475.91;;;-144.79;100.00
19827;BME280;10074;52.018;4.726;2022-11-14T08:06:38;46467.88;;;-144.79;100.00
19827;BME280;10074;52.018;4.726;2022-11-14T08:11:39;46465.88;;;-144.79;100.00
19827;BME280;10074;52.018;4.726;2022-11-14T08:16:49;46465.88;;;-144.79;100.00
19827;BME280;10074;52.018;4.726;2022-11-14T08:21:49;46463.88;;;-144.79;100.00
19827;BME280;10074;52.018;4.726;2022-11-14T08:26:50;46461.88;;;-144.79;100.00
19827;BME280;10074;52.018;4.726;2022-11-14T08:31:50;46465.88;;;-144.79;100.00
19827;BME280;10074;52.018;4.726;2022-11-14T08:36:50;46465.88;;;-144.79;100.00
19827;BME280;10074;52.018;4.726;2022-11-14T08:41:51;46463.88;;;-144.79;100.00
19827;BME280;10074;52.018;4.726;2022-11-14T08:46:51;46461.88;;;-144.79;100.00
19827;BME280;10074;52.018;4.726;2022-11-14T08:51:52;46463.88;;;-144.79;100.00
19827;BME280;10074;52.018;4.726;2022-11-14T08:56:52;46463.88;;;-144.79;100.00
19827;BME280;10074;52.018;4.726;2022-11-14T09:01:53;46461.88;;;-144.79;100.00
19827;BME280;10074;52.018;4.726;2022-11-14T09:06:53;46455.84;;;-144.79;100.00
19827;BME280;10074;52.018;4.726;2022-11-14T09:11:53;46451.84;;;-144.79;100.00
19827;BME280;10074;52.018;4.726;2022-11-14T09:16:54;46455.84;;;-144.79;100.00
19827;BME280;10074;52.018;4.726;2022-11-14T09:21:54;46453.84;;;-144.79;100.00
19827;BME280;10074;52.018;4.726;2022-11-14T09:26:54;46455.84;;;-144.79;100.00
19827;BME280;10074;52.018;4.726;2022-11-14T09:31:55;46455.84;;;-144.79;100.00
19827;BME280;10074;52.018;4.726;2022-11-14T09:36:57;46451.84;;;-144.79;100.00
19827;BME280;10074;52.018;4.726;2022-11-14T09:47:03;46455.84;;;-144.79;100.00
19827;BME280;10074;52.018;4.726;2022-11-14T09:52:30;46455.84;;;-144.79;100.00
19827;BME280;10074;52.018;4.726;2022-11-14T09:57:33;46455.84;;;-144.79;100.00
19827;BME280;10074;52.018;4.726;2022-11-14T10:02:39;46461.88;;;-144.79;100.00
19827;BME280;10074;52.018;4.726;2022-11-14T10:18:57;46463.88;;;-144.79;100.00
19827;BME280;10074;52.018;4.726;2022-11-14T10:24:27;46459.88;;;-144.79;100.00
19827;BME280;10074;52.018;4.726;2022-11-14T10:30:01;46451.84;;;-144.79;100.00
19827;BME280;10074;52.018;4.726;2022-11-14T10:40:21;46459.88;;;-144.79;100.00
19827;BME280;10074;52.018;4.726;2022-11-14T10:45:36;46461.88;;;-144.79;100.00
19827;BME280;10074;52.018;4.726;2022-11-14T10:50:54;46455.84;;;-144.79;100.00
19827;BME280;10074;52.018;4.726;2022-11-14T10:55:56;46455.84;;;-144.79;100.00
19827;BME280;10074;52.018;4.726;2022-11-14T11:06:36;46455.84;;;-144.79;100.00
19827;BME280;10074;52.018;4.726;2022-11-14T11:11:38;46447.84;;;-144.79;100.00
19827;BME280;10074;52.018;4.726;2022-11-14T11:16:39;46435.81;;;-144.79;100.00
19827;BME280;10074;52.018;4.726;2022-11-14T11:21:47;46445.84;;;-144.79;100.00
19827;BME280;10074;52.018;4.726;2022-11-14T11:27:12;46431.78;;;-144.79;100.00
19827;BME280;10074;52.018;4.726;2022-11-14T11:32:23;46411.75;;;-144.79;100.00
19827;BME280;10074;52.018;4.726;2022-11-14T11:37:28;46379.66;;;-144.79;100.00
19827;BME280;10074;52.018;4.726;2022-11-14T11:43:09;46367.63;;;-144.79;100.00
19827;BME280;10074;52.018;4.726;2022-11-14T11:48:16;46361.63;;;-144.79;100.00
19827;BME280;10074;52.018;4.726;2022-11-14T11:53:28;46353.59;;;-144.79;100.00
19827;BME280;10074;52.018;4.726;2022-11-14T11:58:42;46355.59;;;-144.79;100.00
19827;BME280;10074;52.018;4.726;2022-11-14T12:03:53;46353.59;;;-144.79;100.00
19827;BME280;10074;52.018;4.726;2022-11-14T12:30:18;46387.69;;;-144.79;100.00
19827;BME280;10074;52.018;4.726;2022-11-14T12:35:26;46399.72;;;-144.79;100.00
19827;BME280;10074;52.018;4.726;2022-11-14T12:40:37;46399.72;;;-144.79;100.00
19827;BME280;10074;52.018;4.726;2022-11-14T12:50:42;46385.69;;;-144.79;100.00
19827;BME280;10074;52.018;4.726;2022-11-14T13:10:53;46361.63;;;-144.79;100.00
19827;BME280;10074;52.018;4.726;2022-11-14T13:15:55;46363.63;;;-144.79;100.00
19827;BME280;10074;52.018;4.726;2022-11-14T13:21:18;46343.56;;;-144.79;100.00
19827;BME280;10074;52.018;4.726;2022-11-14T13:26:39;46353.59;;;-144.79;100.00
19827;BME280;10074;52.018;4.726;2022-11-14T13:31:48;46351.59;;;-144.79;100.00
19827;BME280;10074;52.018;4.726;2022-11-14T13:52:49;46401.72;;;-144.79;100.00
19827;BME280;10074;52.018;4.726;2022-11-14T14:03:26;46411.75;;;-144.79;100.00
19827;BME280;10074;52.018;4.726;2022-11-14T14:19:24;46431.78;;;-144.79;100.00
19827;BME280;10074;52.018;4.726;2022-11-14T14:30:07;46445.84;;;-144.79;100.00
19827;BME280;10074;52.018;4.726;2022-11-14T14:35:26;46447.84;;;-144.79;100.00
19827;BME280;10074;52.018;4.726;2022-11-14T14:40:37;46447.84;;;-144.79;100.00
19827;BME280;10074;52.018;4.726;2022-11-14T14:45:47;46459.88;;;-144.79;100.00
19827;BME280;10074;52.018;4.726;2022-11-14T14:50:56;46463.88;;;-144.79;100.00
19827;BME280;10074;52.018;4.726;2022-11-14T14:55:59;46455.84;;;-144.79;100.00
19827;BME280;10074;52.018;4.726;2022-11-14T15:01:18;46453.84;;;-144.79;100.00
19827;BME280;10074;52.018;4.726;2022-11-14T15:06:38;46457.88;;;-144.79;100.00
19827;BME280;10074;52.018;4.726;2022-11-14T15:11:41;46451.84;;;-144.79;100.00
19827;BME280;10074;52.018;4.726;2022-11-14T15:16:44;46455.84;;;-144.79;100.00
19827;BME280;10074;52.018;4.726;2022-11-14T15:22:00;46459.88;;;-144.79;100.00
19827;BME280;10074;52.018;4.726;2022-11-14T15:27:10;46459.88;;;-144.79;100.00
19827;BME280;10074;52.018;4.726;2022-11-14T15:32:17;46463.88;;;-144.79;100.00
19827;BME280;10074;52.018;4.726;2022-11-14T15:37:20;46463.88;;;-144.79;100.00
19827;BME280;10074;52.018;4.726;2022-11-14T15:42:27;46463.88;;;-144.79;100.00
19827;BME280;10074;52.018;4.726;2022-11-14T15:47:35;46467.88;;;-144.79;100.00
19827;BME280;10074;52.018;4.726;2022-11-14T15:52:39;46467.88;;;-144.79;100.00
19827;BME280;10074;52.018;4.726;2022-11-14T15:57:40;46465.88;;;-144.79;100.00
19827;BME280;10074;52.018;4.726;2022-11-14T16:02:52;46463.88;;;-144.79;100.00
19827;BME280;10074;52.018;4.726;2022-11-14T16:07:54;46469.88;;;-144.79;100.00
19827;BME280;10074;52.018;4.726;2022-11-14T16:12:54;46463.88;;;-144.79;100.00
19827;BME280;10074;52.018;4.726;2022-11-14T16:17:54;46465.88;;;-144.79;100.00
19827;BME280;10074;52.018;4.726;2022-11-14T16:22:55;46465.88;;;-144.79;100.00
19827;BME280;10074;52.018;4.726;2022-11-14T16:27:58;46467.88;;;-144.79;100.00
19827;BME280;10074;52.018;4.726;2022-11-14T16:32:59;46465.88;;;-144.79;100.00
19827;BME280;10074;52.018;4.726;2022-11-14T16:37:59;46459.88;;;-144.79;100.00
19827;BME280;10074;52.018;4.726;2022-11-14T16:43:00;46463.88;;;-144.79;100.00
19827;BME280;10074;52.018;4.726;2022-11-14T16:48:00;46461.88;;;-144.79;100.00
19827;BME280;10074;52.018;4.726;2022-11-14T16:53:00;46455.84;;;-144.79;100.00
19827;BME280;10074;52.018;4.726;2022-11-14T16:58:00;46451.84;;;-144.79;100.00
19827;BME280;10074;52.018;4.726;2022-11-14T17:03:01;46447.84;;;-144.79;100.00
19827;BME280;10074;52.018;4.726;2022-11-14T17:08:01;46443.81;;;-144.79;100.00
19827;BME280;10074;52.018;4.726;2022-11-14T17:13:01;46433.81;;;-144.79;100.00
19827;BME280;10074;52.018;4.726;2022-11-14T17:18:03;46427.78;;;-144.79;100.00
19827;BME280;10074;52.018;4.726;2022-11-14T17:23:03;46421.78;;;-144.79;100.00
19827;BME280;10074;52.018;4.726;2022-11-14T17:28:04;46419.75;;;-144.79;100.00
19827;BME280;10074;52.018;4.726;2022-11-14T17:33:05;46413.75;;;-144.79;100.00
19827;BME280;10074;52.018;4.726;2022-11-14T17:38:05;46409.75;;;-144.79;100.00
19827;BME280;10074;52.018;4.726;2022-11-14T17:43:06;46413.75;;;-144.79;100.00
19827;BME280;10074;52.018;4.726;2022-11-14T17:48:06;46417.75;;;-144.79;100.00
19827;BME280;10074;52.018;4.726;2022-11-14T17:53:06;46421.78;;;-144.79;100.00
19827;BME280;10074;52.018;4.726;2022-11-14T17:58:07;46417.75;;;-144.79;100.00
19827;BME280;10074;52.018;4.726;2022-11-14T18:03:07;46423.78;;;-144.79;100.00
19827;BME280;10074;52.018;4.726;2022-11-14T18:08:07;46423.78;;;-144.79;100.00
19827;BME280;10074;52.018;4.726;2022-11-14T18:13:08;46425.78;;;-144.79;100.00
19827;BME280;10074;52.018;4.726;2022-11-14T18:18:10;46425.78;;;-144.79;100.00
19827;BME280;10074;52.018;4.726;2022-11-14T18:23:10;46427.78;;;-144.79;100.00
19827;BME280;10074;52.018;4.726;2022-11-14T18:28:10;46429.78;;;-144.79;100.00
19827;BME280;10074;52.018;4.726;2022-11-14T18:33:10;46431.78;;;-144.79;100.00
19827;BME280;10074;52.018;4.726;2022-11-14T18:38:11;46431.78;;;-144.79;100.00
19827;BME280;10074;52.018;4.726;2022-11-14T18:43:11;46431.78;;;-144.79;100.00
19827;BME280;10074;52.018;4.726;2022-11-14T18:48:11;46427.78;;;-144.79;100.00
19827;BME280;10074;52.018;4.726;2022-11-14T18:53:12;46433.81;;;-144.79;100.00
19827;BME280;10074;52.018;4.726;2022-11-14T18:58:12;46435.81;;;-144.79;100.00
19827;BME280;10074;52.018;4.726;2022-11-14T19:03:13;46431.78;;;-144.79;100.00
19827;BME280;10074;52.018;4.726;2022-11-14T19:08:18;46443.81;;;-144.79;100.00
19827;BME280;10074;52.018;4.726;2022-11-14T19:13:22;46441.81;;;-144.79;100.00
19827;BME280;10074;52.018;4.726;2022-11-14T19:18:24;46447.84;;;-144.79;100.00
19827;BME280;10074;52.018;4.726;2022-11-14T19:23:24;46447.84;;;-144.79;100.00
19827;BME280;10074;52.018;4.726;2022-11-14T19:28:25;46451.84;;;-144.79;100.00
19827;BME280;10074;52.018;4.726;2022-11-14T19:33:26;46453.84;;;-144.79;100.00
19827;BME280;10074;52.018;4.726;2022-11-14T19:38:26;46453.84;;;-144.79;100.00
19827;BME280;10074;52.018;4.726;2022-11-14T19:43:27;46453.84;;;-144.79;100.00
19827;BME280;10074;52.018;4.726;2022-11-14T19:48:27;46453.84;;;-144.79;100.00
19827;BME280;10074;52.018;4.726;2022-11-14T19:53:27;46455.84;;;-144.79;100.00
19827;BME280;10074;52.018;4.726;2022-11-14T19:58:28;46457.88;;;-144.79;100.00
19827;BME280;10074;52.018;4.726;2022-11-14T20:03:28;46459.88;;;-144.79;100.00
19827;BME280;10074;52.018;4.726;2022-11-14T20:08:29;46461.88;;;-144.79;100.00
19827;BME280;10074;52.018;4.726;2022-11-14T20:13:37;46459.88;;;-144.79;100.00
19827;BME280;10074;52.018;4.726;2022-11-14T20:18:39;46457.88;;;-144.79;100.00
19827;BME280;10074;52.018;4.726;2022-11-14T20:23:40;46461.88;;;-144.79;100.00
19827;BME280;10074;52.018;4.726;2022-11-14T20:28:42;46459.88;;;-144.79;100.00
19827;BME280;10074;52.018;4.726;2022-11-14T20:33:44;46459.88;;;-144.79;100.00
19827;BME280;10074;52.018;4.726;2022-11-14T20:38:46;46463.88;;;-144.79;100.00
19827;BME280;10074;52.018;4.726;2022-11-14T20:43:47;46467.88;;;-144.79;100.00
19827;BME280;10074;52.018;4.726;2022-11-14T20:48:48;46467.88;;;-144.79;100.00
19827;BME280;10074;52.018;4.726;2022-11-14T20:53:51;46467.88;;;-144.79;100.00
19827;BME280;10074;52.018;4.726;2022-11-14T20:58:51;46471.91;;;-144.79;100.00
19827;BME280;10074;52.018;4.726;2022-11-14T21:03:52;46473.91;;;-144.79;100.00
19827;BME280;10074;52.018;4.726;2022-11-14T21:08:52;46469.88;;;-144.79;100.00
19827;BME280;10074;52.018;4.726;2022-11-14T21:13:53;46469.88;;;-144.79;100.00
19827;BME280;10074;52.018;4.726;2022-11-14T21:18:57;46473.91;;;-144.79;100.00
19827;BME280;10074;52.018;4.726;2022-11-14T21:23:58;46467.88;;;-144.79;100.00
19827;BME280;10074;52.018;4.726;2022-11-14T21:29:10;46469.88;;;-144.79;100.00
19827;BME280;10074;52.018;4.726;2022-11-14T21:34:13;46471.91;;;-144.79;100.00
19827;BME280;10074;52.018;4.726;2022-11-14T21:39:14;46473.91;;;-144.79;100.00
19827;BME280;10074;52.018;4.726;2022-11-14T21:44:16;46471.91;;;-144.79;100.00
19827;BME280;10074;52.018;4.726;2022-11-14T21:49:17;46471.91;;;-144.79;100.00
19827;BME280;10074;52.018;4.726;2022-11-14T21:54:17;46477.91;;;-144.79;100.00
19827;BME280;10074;52.018;4.726;2022-11-14T21:59:17;46471.91;;;-144.79;100.00
19827;BME280;10074;52.018;4.726;2022-11-14T22:04:20;46467.88;;;-144.79;100.00
19827;BME280;10074;52.018;4.726;2022-11-14T22:09:22;46473.91;;;-144.79;100.00
19827;BME280;10074;52.018;4.726;2022-11-14T22:14:24;46467.88;;;-144.79;100.00
19827;BME280;10074;52.018;4.726;2022-11-14T22:19:27;46471.91;;;-144.79;100.00
19827;BME280;10074;52.018;4.726;2022-11-14T22:24:27;46473.91;;;-144.79;100.00
19827;BME280;10074;52.018;4.726;2022-11-14T22:29:28;46469.88;;;-144.79;100.00
19827;BME280;10074;52.018;4.726;2022-11-14T22:34:28;46475.91;;;-144.79;100.00
19827;BME280;10074;52.018;4.726;2022-11-14T22:39:29;46471.91;;;-144.79;100.00
19827;BME280;10074;52.018;4.726;2022-11-14T22:44:29;46475.91;;;-144.79;100.00
19827;BME280;10074;52.018;4.726;2022-11-14T22:49:29;46471.91;;;-144.79;100.00
19827;BME280;10074;52.018;4.726;2022-11-14T22:54:29;46473.91;;;-144.79;100.00
19827;BME280;10074;52.018;4.726;2022-11-14T22:59:30;46471.91;;;-144.79;100.00
19827;BME280;10074;52.018;4.726;2022-11-14T23:04:30;46471.91;;;-144.79;100.00
19827;BME280;10074;52.018;4.726;2022-11-14T23:09:32;46475.91;;;-144.79;100.00
19827;BME280;10074;52.018;4.726;2022-11-14T23:14:33;46469.88;;;-144.79;100.00
19827;BME280;10074;52.018;4.726;2022-11-14T23:19:33;46469.88;;;-144.79;100.00
19827;BME280;10074;52.018;4.726;2022-11-14T23:24:33;46471.91;;;-144.79;100.00
19827;BME280;10074;52.018;4.726;2022-11-14T23:29:34;46467.88;;;-144.79;100.00
19827;BME280;10074;52.018;4.726;2022-11-14T23:34:34;46471.91;;;-144.79;100.00
19827;BME280;10074;52.018;4.726;2022-11-14T23:39:35;46471.91;;;-144.79;100.00
19827;BME280;10074;52.018;4.726;2022-11-14T23:44:35;46471.91;;;-144.79;100.00
19827;BME280;10074;52.018;4.726;2022-11-14T23:49:36;46473.91;;;-144.79;100.00
19827;BME280;10074;52.018;4.726;2022-11-14T23:54:37;46473.91;;;-144.79;100.00
19827;BME280;10074;52.018;4.726;2022-11-14T23:59:37;46475.91;;;-144.79;100.00
